Willow Oak, Texas
Current Conditions -  °F | °C
As of 12:15 AM on Monday 26 Jan 2015 (Local Time) from KJXI Reporting Station
Clear Clear  
Wind Chill: 43°   Ceiling: Unl
Heat Index: 45°   Visibility: 10mi
Dew Point: 29°   Wind: 5mph
Humidity: 54%   Direction: 280°W
Pressure: 30.15"   Gusts: NA
Location:  32.7353°N, 94.9492°W
Report Text: KJXI 260615Z AUTO 28004KT 10SM CLR 07/M01 A3015 RMK AO2 T00731015
Loading
Personal Weather Stations






























Interactive Weather Map New forecast layout! Learn more

10-Day Weather Forecast

Advertisements
Track Severe Weather on mobile